createdAt,value
2022-12-15T00:02:19.207Z,34.33
2022-12-15T00:05:05.039Z,30.53
2022-12-15T00:07:50.936Z,30.57
2022-12-15T00:10:36.940Z,30.70
2022-12-15T00:13:22.971Z,27.93
2022-12-15T00:16:08.987Z,29.67
2022-12-15T00:18:54.659Z,30.07
2022-12-15T00:21:40.614Z,31.50
2022-12-15T00:24:26.544Z,31.43
2022-12-15T00:27:12.428Z,30.10
2022-12-15T00:29:58.419Z,30.60
2022-12-15T00:32:44.498Z,31.07
2022-12-15T00:35:30.054Z,31.20
2022-12-15T00:38:15.982Z,31.67
2022-12-15T00:40:42.998Z,44.22
2022-12-15T00:43:11.887Z,35.20
2022-12-15T00:45:58.037Z,33.90
2022-12-15T00:48:25.051Z,31.10
2022-12-15T00:50:52.111Z,31.20
2022-12-15T00:53:41.220Z,29.83
2022-12-15T00:56:27.278Z,29.33
2022-12-15T00:59:13.381Z,31.80
2022-12-15T01:01:59.618Z,30.50
2022-12-15T01:04:45.627Z,29.63
2022-12-15T01:07:31.588Z,28.57
2022-12-15T01:10:17.632Z,29.30
2022-12-15T01:13:03.646Z,30.07
2022-12-15T01:15:49.668Z,41.58
2022-12-15T01:18:35.596Z,34.30
2022-12-15T01:21:04.867Z,31.93
2022-12-15T01:23:33.580Z,30.67
2022-12-15T01:26:01.306Z,32.17
2022-12-15T01:28:28.361Z,30.83
2022-12-15T01:30:55.558Z,33.40
2022-12-15T01:33:22.881Z,32.20
2022-12-15T01:35:56.885Z,31.20
2022-12-15T01:38:23.932Z,32.80
2022-12-15T01:40:52.061Z,31.17
2022-12-15T01:43:20.694Z,30.77
2022-12-15T01:45:49.624Z,31.00
2022-12-15T01:48:36.482Z,31.00
2022-12-15T01:51:29.784Z,32.73
2022-12-15T01:53:59.909Z,31.23
2022-12-15T01:56:30.066Z,40.30
2022-12-15T01:59:02.702Z,34.17
2022-12-15T02:01:30.052Z,31.80
2022-12-15T02:03:57.244Z,32.03
2022-12-15T02:06:25.737Z,33.93
2022-12-15T02:08:54.486Z,32.00
2022-12-15T02:11:21.478Z,30.67
2022-12-15T02:14:02.080Z,32.23
2022-12-15T02:16:29.202Z,31.47
2022-12-15T02:18:56.210Z,33.03
2022-12-15T02:21:42.132Z,34.03
2022-12-15T02:24:20.097Z,34.50
2022-12-15T02:27:05.994Z,33.13
2022-12-15T02:29:51.875Z,31.43
2022-12-15T02:32:26.763Z,45.42
2022-12-15T02:34:57.711Z,35.63
2022-12-15T02:37:35.849Z,33.17
2022-12-15T02:40:04.546Z,31.67
2022-12-15T02:42:32.788Z,32.33
2022-12-15T02:45:10.807Z,30.90
2022-12-15T02:47:49.750Z,31.50
2022-12-15T02:50:16.749Z,32.17
2022-12-15T02:52:55.221Z,30.43
2022-12-15T02:55:36.356Z,30.83
2022-12-15T02:58:03.338Z,31.47
2022-12-15T03:00:31.630Z,31.53
2022-12-15T03:02:59.107Z,32.80
2022-12-15T03:05:26.456Z,30.13
2022-12-15T03:07:54.590Z,30.20
2022-12-15T03:10:23.825Z,30.42
2022-12-15T03:12:50.876Z,30.10
2022-12-15T03:15:18.698Z,31.47
2022-12-15T03:17:45.859Z,30.50
2022-12-15T03:20:13.023Z,33.47
2022-12-15T03:22:40.133Z,33.20
2022-12-15T03:25:07.294Z,30.23
2022-12-15T03:27:35.846Z,30.83
2022-12-15T03:30:02.910Z,32.13
2022-12-15T03:32:30.384Z,31.50
2022-12-15T03:34:57.409Z,32.53
2022-12-15T03:37:24.442Z,30.30
2022-12-15T03:39:51.465Z,30.93
2022-12-15T03:42:38.463Z,31.33
2022-12-15T03:45:05.751Z,31.73
2022-12-15T03:47:32.815Z,32.13
2022-12-15T03:49:59.966Z,32.93
2022-12-15T03:52:26.994Z,31.13
2022-12-15T03:54:54.017Z,33.23
2022-12-15T03:57:21.048Z,33.63
2022-12-15T03:59:48.077Z,32.97
2022-12-15T04:02:15.360Z,33.13
2022-12-15T04:04:42.649Z,32.67
2022-12-15T04:07:09.705Z,34.40
2022-12-15T04:09:37.371Z,33.80
2022-12-15T04:12:04.624Z,34.23
2022-12-15T04:14:31.949Z,32.90
2022-12-15T04:16:59.071Z,33.97
2022-12-15T04:19:44.849Z,31.63
2022-12-15T04:22:17.644Z,32.07
2022-12-15T04:25:03.989Z,33.40
2022-12-15T04:27:49.752Z,43.40
2022-12-15T04:30:35.876Z,36.13
2022-12-15T04:33:27.635Z,33.67
2022-12-15T04:36:16.638Z,33.60
2022-12-15T04:39:02.392Z,33.73
2022-12-15T04:41:48.558Z,35.40
2022-12-15T04:44:34.559Z,34.47
2022-12-15T04:47:20.425Z,35.67
2022-12-15T04:50:06.426Z,35.23
2022-12-15T04:52:52.418Z,33.77
2022-12-15T04:55:38.262Z,34.30
2022-12-15T04:58:24.792Z,33.23
2022-12-15T05:01:11.068Z,34.33
2022-12-15T05:03:57.031Z,33.50
2022-12-15T05:06:43.050Z,34.87
2022-12-15T05:09:28.969Z,32.60
2022-12-15T05:12:14.845Z,32.63
2022-12-15T05:15:00.852Z,33.93
2022-12-15T05:17:46.641Z,34.03
2022-12-15T05:20:32.549Z,33.80
2022-12-15T05:23:18.338Z,33.87
2022-12-15T05:26:04.830Z,32.50
2022-12-15T05:28:50.648Z,34.93
2022-12-15T05:31:36.665Z,34.37
2022-12-15T05:34:05.813Z,32.87
2022-12-15T05:36:33.066Z,35.00
2022-12-15T05:39:00.107Z,33.17
2022-12-15T05:41:27.185Z,34.10
2022-12-15T05:43:54.193Z,35.47
2022-12-15T05:46:21.242Z,34.47
2022-12-15T05:48:48.343Z,31.80
2022-12-15T05:51:15.479Z,33.47
2022-12-15T05:53:43.073Z,34.37
2022-12-15T05:56:11.563Z,35.23
2022-12-15T05:58:44.890Z,34.50
2022-12-15T06:01:14.164Z,32.13
2022-12-15T06:03:41.541Z,32.63
2022-12-15T06:06:09.673Z,32.17
2022-12-15T06:08:38.197Z,32.93
2022-12-15T06:11:05.376Z,31.33
2022-12-15T06:13:34.583Z,32.37
2022-12-15T06:16:03.541Z,32.60
2022-12-15T06:18:32.814Z,44.83
2022-12-15T06:21:00.448Z,34.73
2022-12-15T06:23:29.063Z,35.17
2022-12-15T06:25:57.836Z,33.13
2022-12-15T06:28:25.023Z,32.23
2022-12-15T06:30:53.270Z,31.87
2022-12-15T06:33:21.377Z,33.47
2022-12-15T06:35:48.472Z,33.27
2022-12-15T06:38:15.820Z,32.40
2022-12-15T06:40:42.964Z,33.13
2022-12-15T06:43:09.997Z,38.20
2022-12-15T06:45:37.067Z,34.17
2022-12-15T06:48:04.136Z,32.13
2022-12-15T06:50:31.171Z,34.30
2022-12-15T06:52:59.718Z,33.57
2022-12-15T06:55:26.766Z,34.03
2022-12-15T06:57:53.786Z,33.97
2022-12-15T07:00:20.838Z,40.90
2022-12-15T07:02:48.349Z,34.33
2022-12-15T07:05:17.248Z,33.47
2022-12-15T07:07:44.272Z,31.73
2022-12-15T07:10:11.985Z,34.13
2022-12-15T07:12:39.085Z,31.60
2022-12-15T07:15:08.079Z,32.47
2022-12-15T07:17:38.193Z,31.80
2022-12-15T07:20:05.665Z,32.23
2022-12-15T07:22:32.884Z,34.77
2022-12-15T07:25:00.149Z,33.87
2022-12-15T07:27:27.459Z,34.50
2022-12-15T07:29:54.491Z,32.77
2022-12-15T07:32:21.800Z,35.67
2022-12-15T07:34:49.117Z,45.38
2022-12-15T07:37:16.921Z,36.47
2022-12-15T07:39:43.956Z,36.23
2022-12-15T07:42:10.987Z,32.43
2022-12-15T07:44:38.017Z,32.57
2022-12-15T07:47:05.117Z,31.67
2022-12-15T07:49:32.151Z,31.73
2022-12-15T07:51:59.153Z,31.63
2022-12-15T07:54:26.196Z,32.20
2022-12-15T07:56:53.311Z,33.10
2022-12-15T07:59:20.331Z,33.83
2022-12-15T08:01:47.773Z,30.93
2022-12-15T08:04:14.942Z,32.40
2022-12-15T08:06:42.018Z,31.27
2022-12-15T08:09:09.095Z,31.67
2022-12-15T08:11:36.220Z,30.60
2022-12-15T08:14:05.452Z,30.87
2022-12-15T08:16:36.485Z,29.93
2022-12-15T08:19:05.372Z,29.50
2022-12-15T08:21:33.227Z,30.63
2022-12-15T08:24:03.984Z,29.73
2022-12-15T08:26:31.787Z,30.33
2022-12-15T08:29:24.479Z,30.83
2022-12-15T08:31:49.698Z,28.93
2022-12-15T08:34:16.962Z,29.53
2022-12-15T08:36:44.032Z,32.23
2022-12-15T08:39:11.141Z,31.90
2022-12-15T08:41:38.525Z,31.13
2022-12-15T08:44:05.645Z,30.00
2022-12-15T08:46:33.835Z,29.33
2022-12-15T08:49:01.312Z,30.00
2022-12-15T08:51:29.679Z,31.17
2022-12-15T08:53:57.462Z,30.70
2022-12-15T08:56:25.282Z,28.33
2022-12-15T08:58:56.222Z,28.83
2022-12-15T09:01:24.505Z,29.80
2022-12-15T09:03:55.635Z,27.83
2022-12-15T09:06:24.404Z,28.43
2022-12-15T09:08:54.062Z,28.70
2022-12-15T09:11:21.638Z,28.93
2022-12-15T09:13:48.653Z,28.57
2022-12-15T09:16:17.166Z,28.53
2022-12-15T09:18:46.612Z,27.97
2022-12-15T09:21:14.507Z,29.03
2022-12-15T09:23:41.878Z,27.33
2022-12-15T09:26:10.047Z,26.43
2022-12-15T09:28:37.937Z,27.13
2022-12-15T09:31:06.241Z,33.13
2022-12-15T09:33:34.035Z,28.00
2022-12-15T09:36:01.383Z,25.73
2022-12-15T09:38:28.507Z,25.60
2022-12-15T09:40:56.110Z,25.67
2022-12-15T09:43:38.966Z,25.37
2022-12-15T09:46:15.442Z,26.27
2022-12-15T09:48:43.994Z,24.77
2022-12-15T09:51:13.270Z,25.60
2022-12-15T09:53:56.566Z,26.23
2022-12-15T09:56:31.755Z,24.23
2022-12-15T09:59:01.539Z,26.07
2022-12-15T10:01:33.600Z,24.17
2022-12-15T10:04:05.976Z,26.43
2022-12-15T10:06:46.065Z,33.03
2022-12-15T10:09:21.935Z,27.10
2022-12-15T10:12:02.943Z,25.77
2022-12-15T10:14:49.823Z,25.47
2022-12-15T10:17:34.897Z,25.77
2022-12-15T10:20:10.775Z,25.70
2022-12-15T10:22:38.213Z,25.70
2022-12-15T10:25:29.473Z,25.43
2022-12-15T10:28:16.163Z,25.33
2022-12-15T10:30:55.097Z,24.67
2022-12-15T10:33:24.665Z,24.90
2022-12-15T10:35:53.884Z,23.83
2022-12-15T10:38:23.864Z,24.60
2022-12-15T10:41:01.712Z,25.53
2022-12-15T10:43:30.916Z,26.50
2022-12-15T10:46:13.784Z,28.08
2022-12-15T10:48:41.605Z,25.33
2022-12-15T10:51:32.374Z,25.43
2022-12-15T10:54:03.411Z,25.93
2022-12-15T10:56:33.866Z,23.23
2022-12-15T10:59:21.639Z,25.50
2022-12-15T11:01:48.875Z,25.87
2022-12-15T11:04:28.141Z,24.90
2022-12-15T11:07:02.161Z,27.00
2022-12-15T11:09:36.995Z,25.77
2022-12-15T11:12:35.891Z,26.00
2022-12-15T11:15:02.984Z,26.23
2022-12-15T11:17:39.752Z,25.43
2022-12-15T11:20:11.132Z,25.27
2022-12-15T11:22:43.063Z,24.70
2022-12-15T11:25:16.321Z,24.90
2022-12-15T11:27:45.279Z,25.73
2022-12-15T11:30:12.319Z,26.33
2022-12-15T11:32:41.850Z,26.40
2022-12-15T11:35:16.202Z,25.17
2022-12-15T11:37:49.500Z,25.83
2022-12-15T11:40:24.164Z,24.63
2022-12-15T11:42:53.919Z,24.10
2022-12-15T11:45:42.485Z,25.63
2022-12-15T11:48:17.156Z,25.77
2022-12-15T11:50:59.511Z,24.57
2022-12-15T11:53:45.556Z,23.70
2022-12-15T11:56:28.976Z,24.13
2022-12-15T11:59:09.437Z,25.13
2022-12-15T12:01:52.658Z,29.90
2022-12-15T12:04:25.041Z,26.17
2022-12-15T12:06:55.096Z,25.47
2022-12-15T12:09:31.022Z,26.13
2022-12-15T12:12:13.617Z,24.97
2022-12-15T12:14:40.605Z,25.00
2022-12-15T12:17:11.890Z,26.63
2022-12-15T12:19:42.072Z,26.50
2022-12-15T12:22:14.016Z,26.37
2022-12-15T12:24:44.399Z,25.97
2022-12-15T12:27:28.176Z,24.40
2022-12-15T12:30:00.388Z,26.17
2022-12-15T12:32:42.795Z,25.57
2022-12-15T12:35:31.677Z,23.90
2022-12-15T12:38:03.894Z,32.55
2022-12-15T12:40:31.617Z,27.07
2022-12-15T12:42:59.327Z,24.73
2022-12-15T12:45:30.090Z,23.43
2022-12-15T12:47:58.437Z,24.97
2022-12-15T12:50:27.700Z,22.97
2022-12-15T12:52:56.412Z,23.83
2022-12-15T12:55:24.201Z,22.17
2022-12-15T12:57:51.341Z,23.40
2022-12-15T13:00:22.887Z,21.93
2022-12-15T13:02:52.713Z,23.73
2022-12-15T13:05:22.638Z,23.37
2022-12-15T13:07:56.893Z,23.63
2022-12-15T13:10:25.261Z,21.70
2022-12-15T13:12:59.135Z,25.37
2022-12-15T13:15:29.244Z,22.43
2022-12-15T13:17:59.070Z,23.57
2022-12-15T13:20:30.258Z,22.90
2022-12-15T13:23:18.807Z,24.17
2022-12-15T13:25:51.951Z,22.73
2022-12-15T13:28:42.647Z,22.60
2022-12-15T13:31:18.784Z,24.57
2022-12-15T13:33:54.943Z,22.83
2022-12-15T13:36:37.741Z,23.90
2022-12-15T13:39:17.231Z,23.13
2022-12-15T13:42:07.477Z,23.27
2022-12-15T13:44:32.633Z,23.43
2022-12-15T13:47:13.233Z,25.13
2022-12-15T13:50:01.381Z,23.80
2022-12-15T13:55:40.107Z,24.57
2022-12-15T13:58:07.281Z,23.47
2022-12-15T14:00:34.494Z,23.57
2022-12-15T14:03:11.166Z,24.83
2022-12-15T14:05:39.170Z,24.10
2022-12-15T14:08:16.110Z,24.63
2022-12-15T14:10:45.179Z,24.40
2022-12-15T14:13:19.210Z,25.00
2022-12-15T14:15:50.908Z,25.13
2022-12-15T14:18:37.368Z,24.63
2022-12-15T14:21:08.619Z,24.50
2022-12-15T14:23:58.012Z,24.17
2022-12-15T14:26:31.669Z,24.70
2022-12-15T14:29:02.905Z,24.23
2022-12-15T14:31:30.926Z,30.17
2022-12-15T14:34:02.717Z,26.37
2022-12-15T14:36:31.751Z,24.23
2022-12-15T14:39:00.079Z,25.90
2022-12-15T14:41:28.940Z,23.80
2022-12-15T14:44:36.822Z,24.33
2022-12-15T14:47:17.282Z,24.67
2022-12-15T14:49:45.618Z,24.90
2022-12-15T14:52:23.724Z,24.63
2022-12-15T14:55:01.416Z,25.60
2022-12-15T14:57:28.404Z,24.40
2022-12-15T14:59:55.804Z,24.67
2022-12-15T15:02:23.288Z,23.80
2022-12-15T15:04:59.612Z,24.77
2022-12-15T15:07:28.763Z,33.17
2022-12-15T15:09:56.100Z,25.73
2022-12-15T15:12:24.584Z,25.17
2022-12-15T15:14:51.589Z,22.20
2022-12-15T15:17:23.644Z,23.63
2022-12-15T15:20:01.331Z,21.73
2022-12-15T15:22:45.299Z,23.47
2022-12-15T15:25:28.949Z,21.63
2022-12-15T15:28:02.945Z,21.93
2022-12-15T15:30:30.768Z,20.50
2022-12-15T15:32:58.818Z,23.30
2022-12-15T15:35:33.912Z,23.00
2022-12-15T15:38:21.414Z,22.10
2022-12-15T15:40:52.284Z,21.17
2022-12-15T15:43:19.555Z,21.00
2022-12-15T15:45:47.393Z,20.30
2022-12-15T15:48:18.183Z,20.37
2022-12-15T15:50:47.197Z,19.93
2022-12-15T15:53:17.568Z,19.70
2022-12-15T15:55:44.895Z,20.43
2022-12-15T15:58:12.951Z,18.50
2022-12-15T16:00:40.562Z,19.17
2022-12-15T16:03:08.487Z,19.73
2022-12-15T16:05:36.398Z,18.70
2022-12-15T16:08:03.754Z,18.77
2022-12-15T16:10:30.816Z,20.00
2022-12-15T16:13:00.391Z,20.27
2022-12-15T16:15:28.855Z,19.40
2022-12-15T16:17:56.230Z,17.90
2022-12-15T16:20:24.094Z,18.93
2022-12-15T16:22:55.770Z,18.73
2022-12-15T16:25:25.607Z,17.27
2022-12-15T16:27:52.687Z,17.53
2022-12-15T16:30:24.383Z,18.97
2022-12-15T16:32:51.690Z,18.80
2022-12-15T16:35:18.879Z,18.03
2022-12-15T16:37:46.735Z,17.93
2022-12-15T16:40:15.608Z,18.67
2022-12-15T16:42:42.720Z,18.47
2022-12-15T16:45:17.917Z,18.70
2022-12-15T16:47:45.618Z,19.90
2022-12-15T16:50:14.738Z,19.13
2022-12-15T16:52:42.641Z,21.47
2022-12-15T16:55:26.729Z,20.40
2022-12-15T16:57:56.429Z,24.50
2022-12-15T17:00:28.540Z,26.87
2022-12-15T17:02:56.398Z,38.03
2022-12-15T17:05:26.194Z,22.37
2022-12-15T17:07:55.808Z,19.77
2022-12-15T17:10:24.194Z,19.43
2022-12-15T17:12:52.046Z,23.30
2022-12-15T17:15:28.286Z,23.57
2022-12-15T17:17:55.749Z,25.43
2022-12-15T17:20:29.425Z,23.60
2022-12-15T17:22:59.581Z,22.97
2022-12-15T17:26:00.760Z,23.87
2022-12-15T17:28:23.116Z,36.00
2022-12-15T17:30:51.414Z,35.20
2022-12-15T17:33:19.468Z,28.00
2022-12-15T17:35:53.678Z,40.97
2022-12-15T17:38:21.424Z,42.37
2022-12-15T17:40:49.020Z,32.27
2022-12-15T17:43:17.826Z,25.63
2022-12-15T17:45:44.925Z,28.83
2022-12-15T17:48:12.646Z,30.83
2022-12-15T17:50:39.942Z,40.80
2022-12-15T17:53:07.478Z,46.13
2022-12-15T17:55:35.609Z,23.10
2022-12-15T17:58:03.295Z,24.27
2022-12-15T18:00:31.155Z,43.53
2022-12-15T18:02:59.189Z,51.37
2022-12-15T18:05:30.472Z,34.93
2022-12-15T18:07:58.659Z,25.07
2022-12-15T18:10:30.521Z,25.77
2022-12-15T18:12:57.917Z,24.50
2022-12-15T18:15:29.021Z,35.83
2022-12-15T18:17:56.882Z,47.05
2022-12-15T18:20:24.035Z,35.07
2022-12-15T18:22:51.551Z,36.93
2022-12-15T18:25:25.886Z,25.80
2022-12-15T18:27:53.902Z,26.40
2022-12-15T18:30:25.474Z,26.77
2022-12-15T18:32:55.782Z,25.47
2022-12-15T18:35:26.859Z,26.37
2022-12-15T18:37:53.939Z,25.77
2022-12-15T18:40:23.745Z,25.60
2022-12-15T18:42:50.857Z,24.73
2022-12-15T18:45:22.624Z,25.37
2022-12-15T18:47:50.118Z,25.47
2022-12-15T18:50:18.693Z,25.13
2022-12-15T18:52:45.928Z,31.35
2022-12-15T18:55:21.066Z,26.33
2022-12-15T18:57:50.036Z,25.87
2022-12-15T19:00:24.337Z,24.77
2022-12-15T19:02:52.531Z,24.60
2022-12-15T19:05:29.446Z,25.43
2022-12-15T19:07:56.517Z,26.20
2022-12-15T19:10:23.870Z,24.63
2022-12-15T19:12:55.299Z,24.73
2022-12-15T19:15:25.363Z,26.83
2022-12-15T19:18:11.269Z,27.93
2022-12-15T19:20:57.289Z,25.10
2022-12-15T19:23:24.951Z,29.07
2022-12-15T19:25:52.814Z,24.80
2022-12-15T19:28:21.199Z,23.87
2022-12-15T19:30:48.733Z,25.77
2022-12-15T19:33:16.245Z,33.50
2022-12-15T19:35:44.390Z,26.17
2022-12-15T19:38:19.019Z,23.80
2022-12-15T19:40:47.558Z,23.73
2022-12-15T19:43:17.270Z,24.63
2022-12-15T19:45:44.606Z,24.50
2022-12-15T19:48:12.576Z,25.70
2022-12-15T19:50:41.088Z,25.17
2022-12-15T19:53:21.698Z,24.53
2022-12-15T19:55:49.131Z,26.40
2022-12-15T19:58:27.123Z,25.23
2022-12-15T20:00:55.849Z,25.53
2022-12-15T20:03:23.030Z,27.00
2022-12-15T20:05:51.885Z,26.97
2022-12-15T20:08:20.856Z,25.83
2022-12-15T20:10:48.189Z,28.17
2022-12-15T20:13:15.276Z,26.13
2022-12-15T20:15:42.361Z,25.80
2022-12-15T20:18:09.633Z,26.80
2022-12-15T20:20:36.726Z,26.50
2022-12-15T20:23:26.329Z,26.53
2022-12-15T20:25:54.050Z,26.77
2022-12-15T20:28:25.639Z,26.20
2022-12-15T20:30:53.276Z,25.77
2022-12-15T20:33:20.614Z,24.47
2022-12-15T20:35:48.800Z,25.70
2022-12-15T20:38:15.857Z,26.77
2022-12-15T20:40:42.910Z,26.40
2022-12-15T20:43:16.172Z,24.47
2022-12-15T20:45:43.792Z,26.27
2022-12-15T20:48:13.592Z,24.80
2022-12-15T20:50:45.445Z,29.33
2022-12-15T20:53:17.360Z,27.07
2022-12-15T20:55:44.714Z,25.37
2022-12-15T20:58:11.963Z,26.30
2022-12-15T21:00:39.075Z,26.17
2022-12-15T21:03:18.191Z,26.57
2022-12-15T21:05:45.396Z,34.60
2022-12-15T21:08:18.027Z,26.97
2022-12-15T21:10:45.203Z,26.63
2022-12-15T21:13:29.527Z,25.60
2022-12-15T21:15:57.033Z,26.03
2022-12-15T21:21:25.403Z,32.80
2022-12-15T21:23:52.423Z,27.83
2022-12-15T21:26:22.576Z,32.85
2022-12-15T21:28:50.414Z,26.27
2022-12-15T21:31:18.944Z,28.30
2022-12-15T21:33:46.612Z,24.87
2022-12-15T21:36:14.581Z,25.07
2022-12-15T21:38:42.562Z,24.80
2022-12-15T21:41:12.908Z,23.77
2022-12-15T21:43:40.114Z,24.80
2022-12-15T21:46:14.387Z,25.17
2022-12-15T21:49:00.715Z,24.40
2022-12-15T21:51:29.142Z,25.13
2022-12-15T21:53:56.203Z,25.63
2022-12-15T21:56:23.752Z,25.37
2022-12-15T21:58:52.781Z,24.27
2022-12-15T22:01:24.199Z,25.47
2022-12-15T22:03:52.521Z,24.63
2022-12-15T22:06:20.693Z,24.97
2022-12-15T22:08:47.810Z,24.17
2022-12-15T22:11:25.693Z,25.23
2022-12-15T22:13:55.033Z,25.93
2022-12-15T22:16:22.394Z,26.47
2022-12-15T22:18:50.807Z,25.97
2022-12-15T22:21:18.751Z,26.87
2022-12-15T22:23:47.820Z,27.93
2022-12-15T22:26:31.346Z,27.00
2022-12-15T22:29:01.092Z,27.23
2022-12-15T22:31:28.246Z,27.07
2022-12-15T22:33:55.321Z,26.17
2022-12-15T22:36:22.400Z,26.57
2022-12-15T22:38:49.417Z,28.20
2022-12-15T22:41:21.370Z,34.20
2022-12-15T22:43:56.085Z,26.77
2022-12-15T22:46:24.871Z,28.73
2022-12-15T22:48:52.309Z,26.90
2022-12-15T22:51:19.851Z,27.07
2022-12-15T22:53:47.026Z,27.53
2022-12-15T22:56:21.801Z,28.07
2022-12-15T22:58:50.240Z,27.33
2022-12-15T23:01:19.035Z,26.70
2022-12-15T23:03:46.166Z,26.23
2022-12-15T23:06:13.217Z,28.33
2022-12-15T23:08:40.242Z,28.67
2022-12-15T23:11:25.732Z,27.27
2022-12-15T23:13:52.736Z,28.53
2022-12-15T23:16:22.205Z,27.67
2022-12-15T23:18:50.569Z,27.13
2022-12-15T23:21:19.346Z,33.13
2022-12-15T23:23:46.612Z,28.83
2022-12-15T23:26:14.588Z,28.67
2022-12-15T23:28:41.958Z,29.53
2022-12-15T23:31:09.128Z,29.37
2022-12-15T23:33:36.496Z,28.43
2022-12-15T23:36:03.560Z,28.27
2022-12-15T23:38:31.156Z,27.93
2022-12-15T23:40:58.610Z,28.53
2022-12-15T23:43:26.620Z,29.00
2022-12-15T23:46:00.517Z,27.10
2022-12-15T23:48:34.952Z,28.53
2022-12-15T23:51:06.358Z,28.83
2022-12-15T23:53:34.289Z,28.93
2022-12-15T23:56:18.525Z,33.65
2022-12-15T23:58:46.318Z,29.33
